Porter Corners, New York
Current Conditions -  °F | °C
As of 6:14 PM on Thursday 18 Dec 2014 (Local Time) from KGFL Reporting Station
Overcast Overcast  
Wind Chill: -1°   Ceiling: 2900
Heat Index:   Visibility: 10mi
Dew Point: -4°   Wind: 6mph
Humidity: 67%   Direction: 340°NNW
Pressure: 29.92"   Gusts: NA
Location:  43.15°N, 73.89°W
Report Text: KGFL 182314Z AUTO 34005KT 10SM OVC029 02/M04 A2992 RMK AO2 T00171039
Loading
Personal Weather Stations






























Interactive Weather Map New forecast layout! Learn more

10-Day Weather Forecast

Advertisements
Track Severe Weather on mobile